Flight Track Log - Related Links

Times and Time Zones

All times are in EDT time to prevent confusion due to time zone crossing. See the N560TA flight status page for this flight to view local times or setup timezone preferences in your user account.

Time Position Orientation Groundspeed Altitude Reporting Facility
EDT Latitude Longitude Course Direction KTS MPH feet Rate Location/Type
Sun 02:50:49 PM 40.2667 -74.8167 237° Southwest 81 93 900  Level Philadelphia TRACON
Sun 02:51:26 PM 40.2500 -74.8500 237° Southwest 130 150 1,800 1,361 Climbing Philadelphia TRACON
Sun 02:52:26 PM 40.2167 -74.8833 217° Southwest 178 205 3,100 2,200 Climbing Philadelphia TRACON
Sun 02:53:26 PM 40.1833 -74.9167 217° Southwest 166 191 6,200 2,000 Climbing Philadelphia TRACON
Sun 02:54:26 PM 40.1333 -74.9500 207° Southwest 264 304 7,100 450 Climbing Philadelphia TRACON
Sun 02:55:26 PM 40.0667 -75.0000 210° Southwest 273 314 7,100 450 Level Philadelphia TRACON
Sun 02:56:26 PM 40.0000 -75.0500 210° Southwest 277 319 8,000 1,500 Climbing Philadelphia TRACON
Sun 02:57:26 PM 39.9333 -75.1000 210° Southwest 283 326 10,100 1,050 Climbing Philadelphia TRACON
Sun 02:58:26 PM 39.8500 -75.1500 205° Southwest 295 339 10,100 543 Level Philadelphia TRACON
Sun 03:00:45 PM 39.6861 -75.2706 210° Southwest 314 361 11,900 995 Climbing Washington Center
Sun 03:01:45 PM 39.6008 -75.3142 202° Southwest 323 372 13,400 2,034 Climbing Washington Center
Sun 03:02:43 PM 39.5111 -75.3281 187° South 323 372 15,900 1,983 Climbing Washington Center
Sun 03:03:43 PM 39.4236 -75.3444 188° South 323 372 17,300 1,488 Climbing Washington Center
Sun 03:04:44 PM 39.3319 -75.3608 188° South 328 377 18,900 1,388 Climbing Washington Center
Sun 03:05:44 PM 39.2444 -75.3744 187° South 333 383 20,100 1,289 Climbing Washington Center
Sun 03:06:45 PM 39.1467 -75.3908 187° South 339 390 21,500 942 Climbing Washington Center
Sun 03:07:45 PM 39.0528 -75.4100 189° South 339 390 22,000 1,050 Climbing Washington Center
Sun 03:08:45 PM 38.9528 -75.4208 185° South 354 407 23,600 1,424 Climbing Washington Center
Sun 03:09:43 PM 38.8589 -75.4344 186° South 353 406 24,800 1,119 Climbing Washington Center
Sun 03:10:43 PM 38.7653 -75.4506 188° South 348 400 25,800 942 Climbing Washington Center
Sun 03:11:44 PM 38.6714 -75.4614 185° South 348 400 26,700 738 Climbing Washington Center
Sun 03:12:45 PM 38.5756 -75.4803 189° South 354 407 27,300 655 Climbing Washington Center
Sun 03:13:43 PM 38.4775 -75.4936 186° South 354 407 28,000 353 Climbing Washington Center
Sun 03:14:44 PM 38.3733 -75.5069 186° South 361 415 28,000  Level Washington Center
Sun 03:15:45 PM 38.2836 -75.5467 199° South 373 429 28,000 555 Level Washington Center
Sun 03:16:43 PM 38.1919 -75.6050 207° Southwest 373 429 29,100 1,424 Climbing Washington Center
Sun 03:17:43 PM 38.1083 -75.6578 206° Southwest 361 415 30,800 1,650 Climbing Washington Center
Sun 03:18:43 PM 38.0189 -75.7208 209° Southwest 345 397 32,400 1,388 Climbing Washington Center
Sun 03:19:44 PM 37.9353 -75.7708 205° Southwest 332 382 33,600 1,190 Climbing Washington Center
Sun 03:20:44 PM 37.8539 -75.8233 207° Southwest 326 375 34,800 1,140 Climbing Washington Center
Sun 03:21:45 PM 37.7744 -75.8625 201° Southwest 326 375 35,900 605 Climbing Washington Center
Sun 03:22:43 PM 37.6847 -75.9250 209° Southwest 331 381 36,000 508 Climbing Washington Center
Sun 03:23:43 PM 37.5928 -75.9822 206° Southwest 352 405 36,900 992 Climbing Washington Center
Sun 03:24:44 PM 37.5050 -76.0369 206° Southwest 352 405 38,000 545 Climbing Washington Center
Sun 03:25:44 PM 37.4131 -76.0914 205° Southwest 357 411 38,000  Level Washington Center
Sun 03:26:45 PM 37.3189 -76.1508 207° Southwest 372 428 38,000  Level Washington Center
Sun 03:27:45 PM 37.2122 -76.2072 203° Southwest 394 453 38,000  Level Washington Center
Sun 03:28:43 PM 37.1097 -76.2689 206° Southwest 405 466 38,000  Level Washington Center
Sun 03:29:43 PM 37.0069 -76.3306 206° Southwest 405 466 38,000  Level Washington Center
Sun 03:30:44 PM 36.9067 -76.3919 206° Southwest 405 466 38,000  Level Washington Center
Sun 03:31:45 PM 36.8039 -76.4531 205° Southwest 405 466 38,000 101 Level Washington Center
Sun 03:32:43 PM 36.7222 -76.5042 207° Southwest 405 466 38,200 605 Climbing Washington Center
Sun 03:33:44 PM 36.6131 -76.5728 207° Southwest 405 466 39,200 893 Climbing Washington Center
Sun 03:34:44 PM 36.5189 -76.6283 205° Southwest 394 453 40,000 400 Climbing Washington Center
Sun 03:35:44 PM 36.4222 -76.6839 205° Southwest 387 445 40,000  Level Washington Center
Sun 03:36:45 PM 36.3217 -76.7417 205° Southwest 387 445 40,000  Level Washington Center
Sun 03:37:43 PM 36.2208 -76.8022 206° Southwest 392 451 40,000  Level Washington Center
Sun 03:38:44 PM 36.1222 -76.8597 205° Southwest 392 451 40,000  Level Washington Center
Sun 03:39:44 PM 36.0153 -76.9197 204° Southwest 405 466 40,000  Level Washington Center
Sun 03:40:45 PM 35.9122 -76.9794 205° Southwest 410 472 40,000  Level Washington Center
Sun 03:41:45 PM 35.8094 -77.0392 205° Southwest 405 466 40,000  Level Washington Center
Sun 03:42:43 PM 35.7083 -77.0986 206° Southwest 405 466 40,000  Level Washington Center
Sun 03:43:43 PM 35.6011 -77.1631 206° Southwest 399 459 40,000  Level Washington Center
Sun 03:44:45 PM 35.4961 -77.2222 205° Southwest 404 465 40,000  Level Washington Center
Sun 03:45:45 PM 35.3931 -77.2814 205° Southwest 404 465 40,000  Level Washington Center
Sun 03:46:43 PM 35.2878 -77.3403 205° Southwest 404 465 40,000  Level Washington Center
Sun 03:47:43 PM 35.1867 -77.4014 206° Southwest 404 465 40,000  Level Washington Center
Sun 03:48:44 PM 35.1025 -77.4478 204° Southwest 404 465 40,000  Level Washington Center
Sun 03:49:45 PM 34.9889 -77.5111 205° Southwest 404 465 40,000  Level Washington Center
Sun 03:50:45 PM 34.8836 -77.5744 206° Southwest 404 465 40,000  Level Washington Center
Sun 03:51:43 PM 34.7697 -77.6425 206° Southwest 404 465 40,000  Level Washington Center
Sun 03:52:43 PM 34.6664 -77.7006 205° Southwest 410 472 40,000  Level Washington Center
Sun 03:53:43 PM 34.5611 -77.7583 204° Southwest 410 472 40,000  Level Washington Center
Sun 03:54:44 PM 34.4600 -77.8186 206° Southwest 410 472 40,000  Level Washington Center
Sun 03:55:44 PM 34.3544 -77.8761 204° Southwest 410 472 40,000  Level Washington Center
Sun 03:57:44 PM 34.1314 -77.9381 193° South 434 499 40,000  Level Jacksonville Center
Sun 03:58:44 PM 34.0178 -77.9694 193° South 439 505 40,000  Level Jacksonville Center
Sun 03:59:44 PM 33.9025 -78.0061 195° South 433 498 40,000  Level Jacksonville Center
Sun 04:00:44 PM 33.7889 -78.0375 193° South 426 490 40,000  Level Jacksonville Center
Sun 04:01:44 PM 33.6753 -78.0686 193° South 426 490 40,000  Level Jacksonville Center
Sun 04:02:44 PM 33.5600 -78.1047 195° South 431 496 40,000  Level Jacksonville Center
Sun 04:03:44 PM 33.4464 -78.1358 193° South 426 490 40,000  Level Jacksonville Center
Sun 04:04:44 PM 33.3347 -78.1667 193° South 426 490 40,000  Level Jacksonville Center
Sun 04:05:44 PM 33.2192 -78.2000 194° South 426 490 40,000  Level Jacksonville Center
Sun 04:06:44 PM 33.1056 -78.2333 194° South 426 490 40,000  Level Jacksonville Center
Sun 04:07:44 PM 32.9897 -78.2642 193° South 426 490 40,000  Level Jacksonville Center
Sun 04:08:44 PM 32.8761 -78.2947 193° South 426 490 40,000  Level Jacksonville Center
Sun 04:09:44 PM 32.7606 -78.3303 195° South 426 490 40,000  Level Jacksonville Center
Sun 04:10:44 PM 32.6469 -78.3581 192° South 431 496 40,000  Level Jacksonville Center
Sun 04:11:44 PM 32.5311 -78.3933 194° South 431 496 40,000  Level Jacksonville Center
Sun 04:12:44 PM 32.4175 -78.4261 194° South 431 496 40,000  Level Jacksonville Center
Sun 04:13:44 PM 32.2936 -78.4642 195° South 425 489 40,000  Level Jacksonville Center
Sun 04:14:44 PM 32.1822 -78.4967 194° South 420 483 40,000  Level Jacksonville Center
Sun 04:15:44 PM 32.0706 -78.5289 194° South 420 483 40,000  Level Jacksonville Center
Sun 04:16:44 PM 31.9547 -78.5614 193° South 420 483 40,000  Level Jacksonville Center
Sun 04:17:44 PM 31.8408 -78.5911 193° South 425 489 40,000  Level Jacksonville Center
Sun 04:18:44 PM 31.7275 -78.6281 195° South 425 489 40,000  Level Jacksonville Center
Sun 04:19:44 PM 31.6156 -78.6578 193° South 428 493 40,000  Level Jacksonville Center
Sun 04:20:44 PM 31.5000 -78.6947 195° South 417 480 40,000  Level Jacksonville Center
Sun 04:21:44 PM 31.3861 -78.7264 193° South 427 491 40,000  Level Jacksonville Center
Sun 04:22:44 PM 31.2847 -78.7553 194° South 427 491 40,000  Level Jacksonville Center
Sun 04:23:44 PM 31.1711 -78.7847 193° South 427 491 40,000  Level Jacksonville Center
Sun 04:24:44 PM 31.0553 -78.8236 196° South 432 497 40,000  Level Jacksonville Center
Sun 04:25:44 PM 30.9414 -78.8478 190° South 432 497 40,000  Level Jacksonville Center
Sun 04:26:44 PM 30.8317 -78.8792 194° South 426 490 40,000  Level Jacksonville Center
Sun 04:27:44 PM 30.7158 -78.9131 194° South 420 483 40,000  Level Jacksonville Center
Sun 04:28:44 PM 30.6061 -78.9467 195° South 421 484 40,000  Level Jacksonville Center
Sun 04:29:29 PM 30.5106 -78.9714 193° South 422 486 40,000  Level Miami Center
Sun 04:30:29 PM 30.3933 -79.0053 194° South 408 470 40,000  Level Miami Center
Sun 04:31:29 PM 30.2925 -79.0536 202° Southwest 413 475 40,000  Level Miami Center
Sun 04:32:29 PM 30.1753 -79.1017 200° South 419 482 40,000  Level Miami Center
Sun 04:33:29 PM 30.0722 -79.1472 201° Southwest 419 482 40,000  Level Miami Center
Sun 04:34:29 PM 29.9672 -79.1978 203° Southwest 413 475 40,000  Level Miami Center
Sun 04:35:29 PM 29.8558 -79.2433 200° South 413 475 40,000  Level Miami Center
Sun 04:36:29 PM 29.7528 -79.2983 205° Southwest 414 476 40,000  Level Miami Center
Sun 04:37:29 PM 29.6394 -79.3386 197° South 414 476 40,000  Level Miami Center
Sun 04:38:29 PM 29.5303 -79.3864 201° Southwest 414 476 40,000  Level Miami Center
Sun 04:39:29 PM 29.4211 -79.4314 200° South 414 476 40,000  Level Miami Center
Sun 04:40:29 PM 29.3139 -79.4789 201° Southwest 414 476 40,000  Level Miami Center
Sun 04:41:29 PM 29.2086 -79.5264 201° Southwest 414 476 40,000 -150 Level Miami Center
Sun 04:42:29 PM 29.0972 -79.5711 199° South 414 476 39,700 -1,150 Descending Miami Center
Sun 04:43:29 PM 28.9961 -79.6208 203° Southwest 414 476 37,700 -2,000 Descending Miami Center
Sun 04:44:29 PM 28.8931 -79.6656 201° Southwest 409 471 35,700 -1,950 Descending Miami Center
Sun 04:45:29 PM 28.8078 -79.7489 221° Southwest 390 449 33,800 -1,900 Descending Miami Center
Sun 04:46:29 PM 28.7433 -79.8489 234° Southwest 390 449 31,900 -1,950 Descending Miami Center
Sun 04:47:29 PM 28.6783 -79.9511 234° Southwest 396 456 29,900 -2,000 Descending Miami Center
Sun 04:48:29 PM 28.6239 -80.0586 240° Southwest 395 455 27,900 -2,000 Descending Miami Center
Sun 04:49:29 PM 28.5650 -80.1703 239° Southwest 408 470 25,900 -1,900 Descending Miami Center
Sun 04:50:29 PM 28.5125 -80.2728 240° Southwest 413 475 24,100 -1,150 Descending Miami Center
Sun 04:51:29 PM 28.4642 -80.3797 243° Southwest 407 468 23,600 -950 Descending Miami Center
Sun 04:52:29 PM 28.4150 -80.5033 246° West 395 455 22,200 -1,250 Descending Miami Center
Sun 04:53:29 PM 28.3708 -80.5964 242° Southwest 395 455 21,100 -1,100 Descending Miami Center
Sun 04:54:29 PM 28.3325 -80.7106 249° West 395 455 20,000 -550 Descending Miami Center
Sun 04:55:29 PM 28.2900 -80.8153 245° Southwest 390 449 20,000  Level Miami Center
Sun 04:56:29 PM 28.2453 -80.9219 245° Southwest 380 437 20,000  Level Miami Center
Sun 04:57:29 PM 28.2047 -81.0242 246° West 374 430 20,000  Level Miami Center
Sun 04:58:29 PM 28.1619 -81.1286 245° Southwest 369 425 20,000  Level Miami Center
Sun 04:59:29 PM 28.1047 -81.2300 237° Southwest 354 407 20,000  Level Miami Center
Sun 05:00:29 PM 28.0078 -81.2614 196° South 337 388 20,000  Level Miami Center
Sun 05:01:29 PM 27.9175 -81.2792 190° South 351 404 20,000  Level Miami Center
Sun 05:02:29 PM 27.8189 -81.3011 191° South 361 415 20,000  Level Miami Center
Sun 05:03:29 PM 27.7200 -81.3231 191° South 361 415 20,000 -250 Level Miami Center
Sun 05:04:29 PM 27.6211 -81.3472 192° South 361 415 19,500 -1,100 Descending Miami Center
Sun 05:05:29 PM 27.5139 -81.3689 190° South 361 415 17,800 -1,550 Descending Miami Center
Sun 05:06:29 PM 27.4153 -81.3931 192° South 361 415 16,400 -1,500 Descending Miami Center
Sun 05:07:29 PM 27.3164 -81.4147 191° South 356 410 14,800 -1,600 Descending Miami Center
Sun 05:08:29 PM 27.2239 -81.4344 191° South 356 410 13,200 -1,550 Descending Miami Center
Sun 05:09:29 PM 27.1333 -81.4567 192° South 351 404 11,700 -1,550 Descending Miami Center
Sun 05:10:29 PM 27.0408 -81.4786 192° South 346 398 10,100 -850 Descending Miami Center
Sun 05:11:29 PM 26.9725 -81.4619 168° South 316 364 10,000 -700 Descending Miami Center
Sun 05:12:29 PM 26.9028 -81.4267 156° South 260 299 8,700 -1,350 Descending Miami Center
Sun 05:13:29 PM 26.8431 -81.3986 157° South 241 277 7,300 -1,600 Descending Miami Center
Sun 05:14:29 PM 26.7964 -81.4200 202° Southwest 191 220 5,500 -1,650 Descending Miami Center
Sun 05:15:29 PM 26.7903 -81.4850 264° West 177 204 4,000 -850 Descending Miami Center
Sun 05:16:29 PM 26.7692 -81.5517 250° West 211 243 3,800 -200 Descending Miami Center
Sun 05:18:00 PM 26.6808 -81.7027 237° Southwest  Level Estimated
Sun 05:25:00 PM 26.5866 -81.8633 237° Southwest  Level Estimated
Sun 05:26:00 PM 26.5866 -81.8633 North  Level Estimated
Sun 05:27:00 PM 26.5866 -81.8633 North  Level Estimated
Sun 05:28:00 PM 26.5866 -81.8633 North  Level Estimated
Sun 05:29:00 PM 26.5866 -81.8633 North  Level Estimated
Sun 05:30:00 PM 26.5866 -81.8633 North  Level Estimated
Sun 05:31:00 PM 26.5866 -81.8633 North  Level Estimated
Sun 05:32:00 PM 26.5866 -81.8633 North  Level Estimated

Login

Don't have an account? Register now (free) for customized features, flight alerts, and more!